createdAt,value
2023-03-22T00:01:40.885Z,100.00
2023-03-22T00:04:08.679Z,100.00
2023-03-22T00:06:36.374Z,100.00
2023-03-22T00:09:05.701Z,100.00
2023-03-22T00:11:33.326Z,100.00
2023-03-22T00:14:00.960Z,100.00
2023-03-22T00:16:28.687Z,100.00
2023-03-22T00:18:56.366Z,100.00
2023-03-22T00:21:24.142Z,100.00
2023-03-22T00:23:51.863Z,100.00
2023-03-22T00:26:20.897Z,100.00
2023-03-22T00:28:48.600Z,100.00
2023-03-22T00:31:16.357Z,100.00
2023-03-22T00:33:44.055Z,100.00
2023-03-22T00:36:13.604Z,100.00
2023-03-22T00:38:44.055Z,100.00
2023-03-22T00:41:14.499Z,100.00
2023-03-22T00:43:44.365Z,100.00
2023-03-22T00:46:12.986Z,100.00
2023-03-22T00:48:40.761Z,100.00
2023-03-22T00:51:09.944Z,100.00
2023-03-22T00:53:38.945Z,100.00
2023-03-22T00:56:09.404Z,100.00
2023-03-22T00:58:37.204Z,100.00
2023-03-22T01:01:07.409Z,100.00
2023-03-22T01:03:35.292Z,100.00
2023-03-22T01:06:03.664Z,100.00
2023-03-22T01:08:33.330Z,100.00
2023-03-22T01:11:01.572Z,100.00
2023-03-22T01:13:29.938Z,100.00
2023-03-22T01:15:57.691Z,100.00
2023-03-22T01:18:26.735Z,100.00
2023-03-22T01:20:54.385Z,100.00
2023-03-22T01:23:22.172Z,100.00
2023-03-22T01:25:49.904Z,100.00
2023-03-22T01:28:17.649Z,100.00
2023-03-22T01:30:45.297Z,100.00
2023-03-22T01:33:12.984Z,100.00
2023-03-22T01:35:42.051Z,100.00
2023-03-22T01:38:09.825Z,100.00
2023-03-22T01:40:37.748Z,100.00
2023-03-22T01:43:07.780Z,100.00
2023-03-22T01:45:39.569Z,100.00
2023-03-22T01:48:14.037Z,100.00
2023-03-22T01:50:49.023Z,100.00
2023-03-22T01:53:23.709Z,100.00
2023-03-22T01:55:52.714Z,100.00
2023-03-22T01:58:20.625Z,100.00
2023-03-22T02:00:53.001Z,100.00
2023-03-22T02:03:30.260Z,100.00
2023-03-22T02:05:59.336Z,100.00
2023-03-22T02:08:27.062Z,100.00
2023-03-22T02:10:57.325Z,100.00
2023-03-22T02:13:59.535Z,100.00
2023-03-22T02:16:39.792Z,100.00
2023-03-22T02:19:32.328Z,100.00
2023-03-22T02:22:32.021Z,100.00
2023-03-22T02:25:28.466Z,100.00
2023-03-22T02:28:16.734Z,100.00
2023-03-22T02:31:18.457Z,100.00
2023-03-22T02:34:07.387Z,100.00
2023-03-22T02:37:04.161Z,100.00
2023-03-22T02:39:39.901Z,100.00
2023-03-22T02:42:17.775Z,100.00
2023-03-22T02:44:53.210Z,100.00
2023-03-22T02:47:25.524Z,100.00
2023-03-22T02:50:00.516Z,100.00
2023-03-22T02:52:33.397Z,100.00
2023-03-22T02:55:11.913Z,100.00
2023-03-22T02:57:46.470Z,100.00
2023-03-22T03:00:17.915Z,100.00
2023-03-22T03:02:49.929Z,100.00
2023-03-22T03:05:19.434Z,100.00
2023-03-22T03:07:50.919Z,100.00
2023-03-22T03:10:21.692Z,100.00
2023-03-22T03:12:49.375Z,100.00
2023-03-22T03:15:19.597Z,100.00
2023-03-22T03:18:01.436Z,100.00
2023-03-22T03:20:37.418Z,100.00
2023-03-22T03:23:15.852Z,100.00
2023-03-22T03:25:51.895Z,100.00
2023-03-22T03:28:30.092Z,100.00
2023-03-22T03:31:04.917Z,100.00
2023-03-22T03:33:36.515Z,100.00
2023-03-22T03:36:09.572Z,100.00
2023-03-22T03:38:41.924Z,100.00
2023-03-22T03:41:15.249Z,100.00
2023-03-22T03:43:44.774Z,100.00
2023-03-22T03:46:13.394Z,100.00
2023-03-22T03:48:45.595Z,100.00
2023-03-22T03:51:13.312Z,100.00
2023-03-22T03:53:41.033Z,100.00
2023-03-22T03:56:11.344Z,100.00
2023-03-22T03:58:39.087Z,100.00
2023-03-22T04:01:07.226Z,100.00
2023-03-22T04:03:35.353Z,100.00
2023-03-22T04:06:06.437Z,100.00
2023-03-22T04:08:34.121Z,100.00
2023-03-22T04:11:01.785Z,100.00
2023-03-22T04:13:30.823Z,100.00
2023-03-22T04:16:02.074Z,100.00
2023-03-22T04:18:30.192Z,100.00
2023-03-22T04:20:58.120Z,100.00
2023-03-22T04:23:28.756Z,100.00
2023-03-22T04:25:59.628Z,100.00
2023-03-22T04:28:27.585Z,100.00
2023-03-22T04:30:57.783Z,100.00
2023-03-22T04:33:26.335Z,100.00
2023-03-22T04:35:56.699Z,100.00
2023-03-22T04:38:31.177Z,100.00
2023-03-22T04:41:05.430Z,100.00
2023-03-22T04:43:39.289Z,100.00
2023-03-22T04:49:10.780Z,100.00
2023-03-22T04:51:46.030Z,100.00
2023-03-22T04:54:19.537Z,100.00
2023-03-22T04:56:47.213Z,100.00
2023-03-22T04:59:21.228Z,100.00
2023-03-22T05:01:57.785Z,100.00
2023-03-22T05:04:43.697Z,100.00
2023-03-22T05:07:17.450Z,100.00
2023-03-22T05:09:51.214Z,100.00
2023-03-22T05:12:25.701Z,100.00
2023-03-22T05:15:00.902Z,100.00
2023-03-22T05:20:21.807Z,100.00
2023-03-22T05:26:05.564Z,100.00
2023-03-22T05:28:44.665Z,100.00
2023-03-22T05:31:18.247Z,100.00
2023-03-22T05:33:53.810Z,100.00
2023-03-22T05:39:11.233Z,100.00
2023-03-22T05:44:35.503Z,100.00
2023-03-22T05:47:03.210Z,100.00
2023-03-22T05:49:47.257Z,100.00
2023-03-22T05:52:20.702Z,100.00
2023-03-22T05:55:15.285Z,100.00
2023-03-22T05:58:09.762Z,100.00
2023-03-22T06:01:20.031Z,100.00
2023-03-22T06:04:06.655Z,100.00
2023-03-22T06:06:46.478Z,100.00
2023-03-22T06:09:24.536Z,100.00
2023-03-22T06:14:45.427Z,100.00
2023-03-22T06:17:13.163Z,100.00
2023-03-22T06:19:40.840Z,100.00
2023-03-22T06:22:09.959Z,100.00
2023-03-22T06:24:40.561Z,100.00
2023-03-22T06:27:08.454Z,100.00
2023-03-22T06:29:36.588Z,100.00
2023-03-22T06:32:04.823Z,100.00
2023-03-22T06:34:32.514Z,100.00
2023-03-22T06:37:00.698Z,100.00
2023-03-22T06:39:29.813Z,100.00
2023-03-22T06:41:57.579Z,100.00
2023-03-22T06:44:25.268Z,100.00
2023-03-22T06:46:52.928Z,100.00
2023-03-22T06:49:21.851Z,100.00
2023-03-22T06:51:49.543Z,100.00
2023-03-22T06:54:17.198Z,100.00
2023-03-22T06:56:49.117Z,100.00
2023-03-22T06:59:16.783Z,100.00
2023-03-22T07:01:47.478Z,100.00
2023-03-22T07:04:15.401Z,100.00
2023-03-22T07:06:43.187Z,100.00
2023-03-22T07:09:11.450Z,100.00
2023-03-22T07:11:39.157Z,100.00
2023-03-22T07:14:08.229Z,100.00
2023-03-22T07:16:35.918Z,100.00
2023-03-22T07:19:03.733Z,100.00
2023-03-22T07:21:31.480Z,100.00
2023-03-22T07:23:59.187Z,100.00
2023-03-22T07:26:27.208Z,100.00
2023-03-22T07:28:54.936Z,100.00
2023-03-22T07:31:24.067Z,100.00
2023-03-22T07:33:52.172Z,100.00
2023-03-22T07:36:23.793Z,100.00
2023-03-22T07:38:52.089Z,100.00
2023-03-22T07:41:19.818Z,100.00
2023-03-22T07:43:54.212Z,100.00
2023-03-22T07:46:24.248Z,100.00
2023-03-22T07:48:56.850Z,100.00
2023-03-22T07:51:24.688Z,100.00
2023-03-22T07:53:52.337Z,100.00
2023-03-22T07:56:19.993Z,100.00
2023-03-22T07:58:47.739Z,100.00
2023-03-22T08:01:15.596Z,100.00
2023-03-22T08:03:44.685Z,100.00
2023-03-22T08:06:12.474Z,100.00
2023-03-22T08:08:40.498Z,100.00
2023-03-22T08:11:09.057Z,100.00
2023-03-22T08:13:37.894Z,100.00
2023-03-22T08:16:06.432Z,100.00
2023-03-22T08:18:34.229Z,100.00
2023-03-22T08:21:03.291Z,100.00
2023-03-22T08:23:41.569Z,100.00
2023-03-22T08:26:10.048Z,100.00
2023-03-22T08:28:38.219Z,100.00
2023-03-22T08:31:13.896Z,100.00
2023-03-22T08:33:42.912Z,100.00
2023-03-22T08:36:14.770Z,100.00
2023-03-22T08:38:45.295Z,100.00
2023-03-22T08:41:13.726Z,100.00
2023-03-22T08:43:41.448Z,100.00
2023-03-22T08:46:10.072Z,100.00
2023-03-22T08:48:38.489Z,100.00
2023-03-22T08:51:07.261Z,100.00
2023-03-22T08:53:36.483Z,100.00
2023-03-22T08:56:04.561Z,100.00
2023-03-22T08:58:32.325Z,100.00
2023-03-22T09:01:00.259Z,100.00
2023-03-22T09:03:28.054Z,100.00
2023-03-22T09:05:55.827Z,100.00
2023-03-22T09:08:23.526Z,100.00
2023-03-22T09:10:52.649Z,100.00
2023-03-22T09:13:20.927Z,100.00
2023-03-22T09:15:49.103Z,100.00
2023-03-22T09:18:19.626Z,100.00
2023-03-22T09:20:48.126Z,100.00
2023-03-22T09:23:22.095Z,100.00
2023-03-22T09:26:49.055Z,100.00
2023-03-22T09:30:28.753Z,100.00
2023-03-22T09:33:15.364Z,100.00
2023-03-22T09:39:11.158Z,100.00
2023-03-22T09:41:45.242Z,100.00
2023-03-22T09:44:17.268Z,100.00
2023-03-22T09:46:49.788Z,100.00
2023-03-22T09:49:20.922Z,100.00
2023-03-22T09:51:50.975Z,100.00
2023-03-22T09:54:21.720Z,100.00
2023-03-22T09:56:54.725Z,98.90
2023-03-22T09:59:27.235Z,95.45
2023-03-22T10:02:00.048Z,97.54
2023-03-22T10:04:45.082Z,97.03
2023-03-22T10:07:27.116Z,91.79
2023-03-22T10:10:07.276Z,91.02
2023-03-22T10:12:43.875Z,88.70
2023-03-22T10:15:15.865Z,89.47
2023-03-22T10:17:49.969Z,86.09
2023-03-22T10:20:31.051Z,86.90
2023-03-22T10:23:02.611Z,82.31
2023-03-22T10:25:37.128Z,82.07
2023-03-22T10:28:15.066Z,75.03
2023-03-22T10:30:44.404Z,75.94
2023-03-22T10:33:20.185Z,69.16
2023-03-22T10:35:48.883Z,68.95
2023-03-22T10:38:22.402Z,64.89
2023-03-22T10:40:51.304Z,66.67
2023-03-22T10:43:23.629Z,64.65
2023-03-22T10:45:53.953Z,63.79
2023-03-22T10:48:28.765Z,61.72
2023-03-22T10:50:59.077Z,60.58
2023-03-22T10:53:33.986Z,58.09
2023-03-22T10:56:01.680Z,58.74
2023-03-22T10:58:33.806Z,56.44
2023-03-22T11:01:06.928Z,61.19
2023-03-22T11:03:41.712Z,56.22
2023-03-22T11:06:11.938Z,53.80
2023-03-22T11:08:42.153Z,52.81
2023-03-22T11:11:17.405Z,55.96
2023-03-22T11:13:52.051Z,49.43
2023-03-22T11:16:36.917Z,49.71
2023-03-22T11:23:32.004Z,49.88
2023-03-22T11:30:09.201Z,47.71
2023-03-22T11:32:47.918Z,47.17
2023-03-22T11:39:01.627Z,46.60
2023-03-22T11:42:28.427Z,50.36
2023-03-22T11:45:19.453Z,46.86
2023-03-22T11:51:22.027Z,46.50
2023-03-22T11:56:32.125Z,45.85
2023-03-22T11:59:05.753Z,46.63
2023-03-22T12:01:41.799Z,45.78
2023-03-22T12:04:16.364Z,46.27
2023-03-22T12:06:45.815Z,45.04
2023-03-22T12:09:25.560Z,44.65
2023-03-22T12:11:56.210Z,44.17
2023-03-22T12:14:27.894Z,43.85
2023-03-22T12:16:58.810Z,44.21
2023-03-22T12:19:51.653Z,44.18
2023-03-22T12:22:24.072Z,45.71
2023-03-22T12:25:20.800Z,45.02
2023-03-22T12:29:00.701Z,44.99
2023-03-22T12:31:51.476Z,44.03
2023-03-22T12:35:17.656Z,44.11
2023-03-22T12:40:49.306Z,44.93
2023-03-22T12:43:23.803Z,43.44
2023-03-22T12:45:55.949Z,43.77
2023-03-22T12:48:33.404Z,42.65
2023-03-22T12:51:08.184Z,43.76
2023-03-22T12:54:25.599Z,43.54
2023-03-22T12:57:32.167Z,42.01
2023-03-22T13:02:49.967Z,42.13
2023-03-22T13:05:19.098Z,40.47
2023-03-22T13:07:58.798Z,41.75
2023-03-22T13:10:59.586Z,43.04
2023-03-22T13:13:41.623Z,41.70
2023-03-22T13:16:22.823Z,42.16
2023-03-22T13:19:18.853Z,41.98
2023-03-22T13:21:49.927Z,40.71
2023-03-22T13:24:23.605Z,40.91
2023-03-22T13:26:53.525Z,42.69
2023-03-22T13:29:24.419Z,42.73
2023-03-22T13:31:58.988Z,42.96
2023-03-22T13:34:40.806Z,41.74
2023-03-22T13:37:22.637Z,41.83
2023-03-22T13:39:52.793Z,41.43
2023-03-22T13:42:29.391Z,42.91
2023-03-22T13:45:02.292Z,42.96
2023-03-22T13:47:32.813Z,42.27
2023-03-22T13:50:07.457Z,41.08
2023-03-22T13:52:39.526Z,40.59
2023-03-22T13:55:36.434Z,39.28
2023-03-22T13:58:05.872Z,38.13
2023-03-22T14:00:53.995Z,37.29
2023-03-22T14:03:28.648Z,36.45
2023-03-22T14:06:07.319Z,35.47
2023-03-22T14:08:37.299Z,38.82
2023-03-22T14:11:16.768Z,39.74
2023-03-22T14:13:47.998Z,40.71
2023-03-22T14:16:20.974Z,42.01
2023-03-22T14:18:50.694Z,41.37
2023-03-22T14:21:25.929Z,42.73
